Aérodrome :
LOGIN :

S'inscrire | Disclaimer

   EN    FR    IT 

 










Légende :    VFR   VFR Marginal   IFR   IFR Intensif   IFR Très Intensif
Visi : 
Plafond : 
>= 8 km
>= 3000ft
5 à 8 km
1000 à 3000 ft
1500m à 5 km
500 à 1000 ft
800 à 1500m
200 à 500 ft
< 800m
< 200 ft
Symboles :   Orages  Brouillard  Fortes neiges  Fortes précipitations  Vent > 20 kt
SIGMETs :   Divers  Orages  Givrage  Turbulence  Onde Orograph.  Cendres Volcan.







- Altitude de l'aérodrome : 1768 ft


LEHC - Huesca Pirineos

DERNIER METAR :
  • 170330Z AUTO 08006KT 9999 NCD 13/12 Q1024

METARs EXPIRÉS :
  • 170300Z AUTO 08006KT 9999 NCD 13/12 Q1024
  • 170230Z AUTO 07006KT 9999 NCD 14/12 Q1024
  • 170200Z AUTO 07008KT 9999 NCD 13/12 Q1025
  • 170130Z AUTO 07007KT 9999 NCD 14/12 Q1025
  • 170100Z AUTO 07007KT 9999 NCD 14/12 Q1025

TAF TAF LEHC
Valide du 17 à 03h jusqu'au 18 à 03h UTC


170200Z 1703/1803 10010KT 9999 FEW030 TX22/1714Z TN13/1706Z
Pas de NOTAMs connus pour ce terrain.
2 SIGMETs publiés pour la FIR Madrid (LECM) :
 
Orages noyés dans la masse
LECM SIGMET 2 VALID 170351/170530 LEVA
LECM MADRID FIR/UIR EMBD TS FCST W OF LINE N4000 W00610 - N3715 W00630 TOP FL380 MOV E 15KT NC=
Orages noyés dans la masse
LECM SIGMET 1 VALID 170230/170430 LEVA
LECM MADRID FIR/UIR EMBD TS OBS AT 0214Z WI N4310 W00850 - N4320 W00740 - N4420 W00750 - N44 W009 - N4310 W00850 TOP FL340 MOV NE 15KT NC=



MET'MAP, la Météo Aéronautique d'un coup d'oeil ! - Copyright ORBIFLY Décembre 2007 - Disclaimer

ORBIFLY MET'MAP TEAM :

Programmation & Développement : Alexandra Zaïnal
Conception & Développement : Baudouin d'Aumeries
Co-Programmation & Développement : Marc-Olivier Méhu
Soutien technique & logistique : Manuel Goepfert

Contact : metmap@orbifly.com




SOURCES & CREDITS :

   NOAA